Time;durP1;ratioP1;P1;durP2;ratioP2;P2;SDS_P1;SDS_P2;PMS_P1;PMS_P2;Temp;Humidity;BMP_temperature;BMP_pressure;BME280_temperature;BME280_humidity;BME280_pressure;Samples;Min_cycle;Max_cycle;Signal;HPM_P1;HPM_P2
2022/10/22 00:01:27;;;;;;;10.38;5.75;;;;;;;27.82;21.28;98016.94;5033382;28;20116;-81
2022/10/22 00:03:53;;;;;;;9.63;5.85;;;;;;;28.02;21.16;98014.56;5032938;28;20025;-81
2022/10/22 00:06:19;;;;;;;7.57;5.10;;;;;;;28.35;20.83;98018.50;5027068;28;20042;-80
2022/10/22 00:08:46;;;;;;;11.02;5.88;;;;;;;28.58;20.49;98023.59;5032755;28;20057;-81
2022/10/22 00:11:15;;;;;;;9.60;6.28;;;;;;;28.52;20.44;98021.84;5014632;28;20034;-80
2022/10/22 00:13:41;;;;;;;8.82;5.00;;;;;;;28.55;20.51;98018.88;5027884;28;20061;-81
2022/10/22 00:16:08;;;;;;;8.35;4.80;;;;;;;28.66;20.24;98010.75;5031008;28;20506;-81
2022/10/22 00:18:34;;;;;;;5.82;4.43;;;;;;;28.50;20.80;98010.22;5032628;28;20044;-80
2022/10/22 00:21:01;;;;;;;7.32;5.10;;;;;;;28.34;20.76;98002.78;5016167;28;20045;-80
2022/10/22 00:23:27;;;;;;;8.45;5.20;;;;;;;28.51;20.54;98001.28;5021762;28;20445;-81
2022/10/22 00:25:53;;;;;;;9.73;5.45;;;;;;;28.23;20.79;97993.97;5032451;28;20037;-81
2022/10/22 00:28:20;;;;;;;8.13;5.68;;;;;;;28.23;20.80;97991.13;5032705;28;20499;-81
2022/10/22 00:30:46;;;;;;;9.70;5.90;;;;;;;28.38;20.88;97989.28;5017645;28;20043;-81
2022/10/22 00:33:12;;;;;;;10.02;5.47;;;;;;;28.58;20.65;97991.72;5030522;28;20037;-81
2022/10/22 00:35:38;;;;;;;7.82;4.93;;;;;;;28.48;20.51;97996.56;5023715;28;20395;-80
2022/10/22 00:38:04;;;;;;;7.55;5.32;;;;;;;27.64;21.29;97994.22;5031496;28;20475;-81
2022/10/22 00:40:31;;;;;;;9.57;5.53;;;;;;;27.17;21.81;98003.56;5019925;28;20533;-81
2022/10/22 00:42:57;;;;;;;8.27;5.07;;;;;;;27.38;21.91;97997.19;5031293;28;20053;-81
2022/10/22 00:45:25;;;;;;;9.15;5.32;;;;;;;27.65;21.66;97995.81;5032865;28;20475;-81
2022/10/22 00:48:20;;;;;;;12.10;6.43;;;;;;;27.62;21.98;97991.88;5020391;28;20044;-81
2022/10/22 00:51:08;;;;;;;10.07;6.05;;;;;;;27.59;21.95;98001.25;5023166;28;20442;-81
2022/10/22 00:53:36;;;;;;;9.00;5.38;;;;;;;27.86;21.12;97992.97;5030447;28;20163;-81
2022/10/22 00:56:03;;;;;;;7.93;5.35;;;;;;;28.02;21.34;97994.81;5017784;28;20026;-81
2022/10/22 00:58:33;;;;;;;11.70;5.45;;;;;;;28.15;21.00;97994.69;5015311;28;20033;-81
2022/10/22 01:01:00;;;;;;;9.35;5.32;;;;;;;28.32;20.69;97991.16;5029158;28;20037;-81
2022/10/22 01:03:27;;;;;;;7.88;4.80;;;;;;;28.55;20.52;97989.81;5032284;28;20502;-81
2022/10/22 01:05:59;;;;;;;11.05;6.53;;;;;;;28.62;20.52;97987.53;5024443;28;20041;-81
2022/10/22 01:08:45;;;;;;;6.25;4.78;;;;;;;28.70;20.65;97990.84;5027551;28;20415;-81
2022/10/22 01:11:20;;;;;;;10.63;5.78;;;;;;;28.82;20.17;97992.75;5021642;28;20049;-80
2022/10/22 01:14:00;;;;;;;9.52;5.03;;;;;;;28.88;20.63;97992.91;5027782;28;20057;-82
2022/10/22 01:16:44;;;;;;;9.18;5.25;;;;;;;28.85;20.40;97985.34;5027737;28;20037;-80
2022/10/22 01:19:42;;;;;;;8.68;4.47;;;;;;;28.52;20.85;97993.59;5025121;28;20128;-80
2022/10/22 01:22:15;;;;;;;8.80;5.05;;;;;;;28.45;20.27;97985.41;5027749;28;20081;-81
2022/10/22 01:25:05;;;;;;;7.53;4.85;;;;;;;28.25;20.77;97977.34;5029575;28;20025;-80
2022/10/22 01:27:42;;;;;;;8.50;5.27;;;;;;;28.26;20.77;97975.31;5016407;28;20079;-81
2022/10/22 01:30:11;;;;;;;7.65;4.93;;;;;;;28.36;20.55;97983.34;5026925;28;20437;-81
2022/10/22 01:32:48;;;;;;;9.27;5.13;;;;;;;28.26;20.72;97980.97;5031093;28;20047;-81
2022/10/22 01:35:20;;;;;;;7.68;4.82;;;;;;;28.08;21.03;97987.28;5030586;28;20029;-80
2022/10/22 01:37:54;;;;;;;7.85;4.40;;;;;;;28.12;21.02;97990.78;5031641;28;20087;-81
2022/10/22 01:40:22;;;;;;;8.25;4.53;;;;;;;28.23;20.43;97990.34;5023834;28;20401;-81
2022/10/22 01:43:00;;;;;;;8.40;5.88;;;;;;;27.88;21.32;97975.56;5034949;28;20021;-81
2022/10/22 01:45:32;;;;;;;7.75;4.78;;;;;;;28.07;20.72;97977.28;5032378;28;20029;-81
2022/10/22 01:48:20;;;;;;;10.30;5.85;;;;;;;27.32;21.36;97984.13;5031806;28;20064;-80
2022/10/22 01:51:11;;;;;;;8.38;4.85;;;;;;;27.47;21.45;97970.31;5035045;28;20033;-81
2022/10/22 01:53:58;;;;;;;;;;;;;;;27.49;20.95;97959.38;5036036;28;20491;-81
2022/10/22 01:56:35;;;;;;;10.02;5.10;;;;;;;27.08;21.57;97952.78;5026328;28;20044;-81
2022/10/22 01:59:16;;;;;;;8.23;4.53;;;;;;;27.21;21.33;97950.66;5032073;28;20061;-80
2022/10/22 02:01:58;;;;;;;7.38;4.90;;;;;;;27.45;21.02;97956.66;5034290;28;20037;-80
2022/10/22 02:04:49;;;;;;;8.95;5.32;;;;;;;27.59;20.82;97953.31;5033619;28;20034;-80
2022/10/22 02:07:20;;;;;;;9.25;5.25;;;;;;;27.64;20.79;97954.75;5026648;28;20518;-80
2022/10/22 02:09:48;;;;;;;;;;;;;;;27.78;20.44;97954.19;5035035;28;20099;-80
2022/10/22 02:12:17;;;;;;;8.75;5.68;;;;;;;27.13;20.87;97940.13;5035403;28;20020;-80
2022/10/22 02:14:45;;;;;;;9.10;5.32;;;;;;;27.01;21.06;97952.22;5031783;28;20045;-80
2022/10/22 02:17:17;;;;;;;8.93;5.63;;;;;;;27.24;20.83;97948.97;5035311;28;20033;-81
2022/10/22 02:19:59;;;;;;;7.00;4.95;;;;;;;27.30;20.65;97958.44;5034477;28;20056;-80
2022/10/22 02:22:26;;;;;;;9.20;5.32;;;;;;;27.39;20.62;97952.88;5032938;28;20037;-80
2022/10/22 02:24:52;;;;;;;8.50;5.38;;;;;;;27.39;20.73;97942.38;5034119;28;20022;-80
2022/10/22 02:27:24;;;;;;;10.27;5.80;;;;;;;27.60;20.59;97946.44;5034885;28;20402;-80
2022/10/22 02:30:07;;;;;;;7.63;5.07;;;;;;;27.54;20.34;97955.94;5033684;28;20030;-80
2022/10/22 02:32:43;;;;;;;12.60;5.57;;;;;;;27.15;20.87;97963.78;5029618;28;20038;-80
2022/10/22 02:35:16;;;;;;;8.10;5.40;;;;;;;27.18;21.03;97960.06;5028330;28;20039;-80
2022/10/22 02:37:43;;;;;;;7.75;5.32;;;;;;;27.15;20.77;97969.41;5034266;28;20040;-80
2022/10/22 02:40:09;;;;;;;9.48;5.38;;;;;;;27.15;20.98;97975.06;5034167;28;20047;-80
2022/10/22 02:42:37;;;;;;;10.73;5.20;;;;;;;27.36;20.54;97968.66;5027072;28;20406;-80
2022/10/22 02:45:04;;;;;;;8.88;6.03;;;;;;;27.59;20.01;97961.75;5015097;28;20037;-80
2022/10/22 02:47:33;;;;;;;7.93;5.38;;;;;;;27.24;20.48;97966.66;5040108;28;20395;-80
2022/10/22 02:49:59;;;;;;;6.90;4.25;;;;;;;27.26;20.43;97967.00;5030074;28;20394;-80
2022/10/22 02:52:25;;;;;;;10.88;5.38;;;;;;;27.29;20.41;97973.75;5034480;28;20491;-80
2022/10/22 02:54:51;;;;;;;9.70;5.82;;;;;;;27.19;20.29;97978.53;5024336;28;20117;-80
2022/10/22 02:57:17;;;;;;;8.43;4.85;;;;;;;27.33;20.54;97971.56;5032214;28;20049;-80
2022/10/22 02:59:44;;;;;;;9.93;5.65;;;;;;;27.51;20.15;97954.84;5032363;28;20029;-80
2022/10/22 03:02:10;;;;;;;9.80;5.50;;;;;;;27.24;19.95;97958.22;5034318;28;20483;-80
2022/10/22 03:04:36;;;;;;;7.72;5.25;;;;;;;26.98;20.20;97961.63;5028066;28;20593;-80
2022/10/22 03:07:02;;;;;;;7.40;5.25;;;;;;;26.81;20.55;97955.34;5033865;28;20030;-80
2022/10/22 03:09:28;;;;;;;11.27;5.72;;;;;;;26.82;20.41;97964.56;5033474;28;20033;-80
2022/10/22 03:11:54;;;;;;;8.40;5.57;;;;;;;26.61;20.80;97961.22;5023756;28;20037;-80
2022/10/22 03:14:20;;;;;;;11.15;6.15;;;;;;;26.72;21.02;97956.00;5018092;28;20033;-80
2022/10/22 03:16:47;;;;;;;7.20;5.55;;;;;;;26.89;20.42;97964.31;5034545;28;20033;-80
2022/10/22 03:19:13;;;;;;;10.07;5.85;;;;;;;26.61;20.75;97971.69;5030619;28;20132;-80
2022/10/22 03:21:48;;;;;;;8.40;5.22;;;;;;;26.81;20.57;97971.47;5021422;28;20112;-80
2022/10/22 03:24:19;;;;;;;7.22;4.93;;;;;;;27.08;20.14;97972.50;5049260;28;20026;-80
2022/10/22 03:26:48;;;;;;;10.10;6.03;;;;;;;26.55;20.67;97979.16;5033494;28;20036;-80
2022/10/22 03:29:15;;;;;;;10.00;5.88;;;;;;;26.76;20.80;97984.09;5034006;28;20470;-80
2022/10/22 03:31:41;;;;;;;10.27;5.65;;;;;;;26.97;20.24;97977.72;5033082;28;20048;-80
2022/10/22 03:34:07;;;;;;;11.98;5.90;;;;;;;27.16;19.80;97981.50;5033068;28;20032;-80
2022/10/22 03:36:34;;;;;;;11.05;6.05;;;;;;;27.30;19.69;97973.31;5013916;28;20036;-80
2022/10/22 03:39:01;;;;;;;9.48;6.15;;;;;;;26.43;20.44;97969.50;5027224;28;20034;-80
2022/10/22 03:41:28;;;;;;;14.25;5.97;;;;;;;26.13;20.99;97975.72;5029333;28;20052;-81
2022/10/22 03:43:54;;;;;;;9.38;6.07;;;;;;;26.14;20.95;97971.66;5030920;28;20587;-80
2022/10/22 03:46:21;;;;;;;9.35;5.57;;;;;;;26.29;20.59;97972.78;5047586;28;20036;-80
2022/10/22 03:48:47;;;;;;;8.80;5.80;;;;;;;26.40;20.61;97969.59;5028835;28;20042;-80
2022/10/22 03:51:13;;;;;;;10.25;5.45;;;;;;;26.66;20.53;97971.94;5032263;28;20038;-80
2022/10/22 03:53:39;;;;;;;16.35;7.18;;;;;;;26.75;20.63;97965.63;5019023;28;20069;-80
2022/10/22 03:56:14;;;;;;;10.93;6.47;;;;;;;26.74;20.63;97958.41;5022412;28;20041;-80
2022/10/22 03:58:41;;;;;;;9.18;6.63;;;;;;;26.55;20.75;97953.81;5032941;28;20039;-80
2022/10/22 04:01:09;;;;;;;8.90;6.20;;;;;;;25.93;20.88;97941.34;5020020;28;20044;-80
2022/10/22 04:03:36;;;;;;;10.32;6.45;;;;;;;25.78;21.20;97934.59;5014015;28;20034;-80
2022/10/22 04:06:11;;;;;;;10.10;6.22;;;;;;;26.17;20.88;97936.19;5016919;28;20022;-80
2022/10/22 04:08:39;;;;;;;9.55;6.03;;;;;;;26.42;20.42;97948.19;5022158;28;20033;-80
2022/10/22 04:11:06;;;;;;;10.15;6.05;;;;;;;26.65;20.59;97959.06;5027986;28;20091;-80
2022/10/22 04:13:32;;;;;;;9.55;5.75;;;;;;;26.90;20.47;97947.00;5030417;28;20037;-80
2022/10/22 04:16:16;;;;;;;8.48;5.35;;;;;;;27.09;19.86;97931.00;5032741;28;20033;-80
2022/10/22 04:18:44;;;;;;;12.20;6.25;;;;;;;27.00;19.83;97919.66;5032658;28;20406;-80
2022/10/22 04:21:12;;;;;;;11.50;6.55;;;;;;;26.15;20.36;97925.41;5032707;28;20048;-80
2022/10/22 04:23:43;;;;;;;9.32;5.60;;;;;;;25.21;21.65;97921.41;5031907;28;20159;-80
2022/10/22 04:26:09;;;;;;;12.93;6.28;;;;;;;23.70;23.60;97934.50;5033046;28;20079;-80
2022/10/22 04:28:35;;;;;;;10.40;6.22;;;;;;;24.48;22.64;97933.47;5035191;28;20487;-80
2022/10/22 04:31:08;;;;;;;10.43;6.55;;;;;;;25.31;21.74;97940.78;5027422;28;20069;-80
2022/10/22 04:33:34;;;;;;;9.20;6.28;;;;;;;25.96;20.96;97944.06;5032119;28;20415;-80
2022/10/22 04:36:05;;;;;;;9.93;6.25;;;;;;;26.47;20.60;97936.38;5029644;28;20033;-80
2022/10/22 04:38:31;;;;;;;9.10;6.50;;;;;;;26.76;20.33;97929.78;5031617;28;20033;-80
2022/10/22 04:40:57;;;;;;;10.23;6.68;;;;;;;26.99;19.59;97932.97;5039251;28;20033;-80
2022/10/22 04:43:23;;;;;;;14.43;5.95;;;;;;;26.29;19.78;97926.94;5053041;28;20032;-80
2022/10/22 04:45:49;;;;;;;9.80;5.93;;;;;;;26.22;19.99;97927.19;5045524;28;20021;-80
2022/10/22 04:48:15;;;;;;;9.43;5.53;;;;;;;26.47;20.09;97927.91;5032362;28;20037;-80
2022/10/22 04:50:41;;;;;;;8.65;5.18;;;;;;;26.54;20.14;97938.94;5032623;28;20386;-80
2022/10/22 04:53:07;;;;;;;8.00;5.93;;;;;;;26.65;19.95;97950.63;5032479;28;20034;-80
2022/10/22 04:55:33;;;;;;;8.52;5.63;;;;;;;26.60;20.39;97948.41;5032952;28;20040;-80
2022/10/22 04:58:00;;;;;;;9.63;5.47;;;;;;;26.10;20.61;97954.09;5032865;28;20037;-80
2022/10/22 05:00:27;;;;;;;10.10;5.88;;;;;;;26.17;20.35;97953.88;5031636;28;20044;-80
2022/10/22 05:02:53;;;;;;;11.20;6.30;;;;;;;26.34;20.46;97963.78;5032269;28;20044;-80
2022/10/22 05:05:19;;;;;;;8.85;5.65;;;;;;;26.53;20.26;97956.31;5027066;28;20080;-80
2022/10/22 05:07:45;;;;;;;9.00;6.00;;;;;;;26.78;19.97;97958.28;5032924;28;20506;-80
2022/10/22 05:10:11;;;;;;;11.65;7.18;;;;;;;26.94;19.71;97969.38;5032558;28;20119;-80
2022/10/22 05:12:37;;;;;;;13.20;7.40;;;;;;;26.96;19.57;97975.34;5036003;28;20033;-80
2022/10/22 05:15:04;;;;;;;11.65;6.72;;;;;;;26.97;19.75;97976.94;5036707;28;20171;-80
2022/10/22 05:17:30;;;;;;;10.10;6.45;;;;;;;27.06;19.64;97977.00;5036884;28;20034;-80
2022/10/22 05:19:56;;;;;;;9.32;5.80;;;;;;;27.16;19.54;97973.81;5034221;28;20107;-80
2022/10/22 05:22:23;;;;;;;8.32;6.38;;;;;;;26.64;19.55;97959.53;5027813;28;20505;-80
2022/10/22 05:24:49;;;;;;;9.02;6.07;;;;;;;26.40;19.82;97969.59;5032755;28;20037;-80
2022/10/22 05:27:15;;;;;;;10.43;6.40;;;;;;;26.35;19.77;97958.94;5039148;28;20029;-80
2022/10/22 05:29:41;;;;;;;8.93;5.68;;;;;;;26.48;19.84;97954.06;5046660;28;20507;-80
2022/10/22 05:32:07;;;;;;;8.90;6.70;;;;;;;26.20;19.85;97943.75;5036555;28;20072;-80
2022/10/22 05:34:35;;;;;;;8.82;6.07;;;;;;;26.14;20.37;97939.94;5033300;28;20517;-80
2022/10/22 05:37:01;;;;;;;10.60;6.22;;;;;;;26.14;20.58;97948.38;5029576;28;20041;-80
2022/10/22 05:39:27;;;;;;;9.00;6.40;;;;;;;26.31;20.33;97944.16;5032206;28;20029;-80
2022/10/22 05:41:53;;;;;;;7.72;5.68;;;;;;;26.51;20.08;97947.53;5025457;28;20109;-80
2022/10/22 05:44:19;;;;;;;9.02;5.80;;;;;;;26.77;19.43;97957.50;5048432;28;20438;-79
2022/10/22 05:46:45;;;;;;;9.13;6.40;;;;;;;26.96;19.51;97959.25;5019310;28;20046;-80
2022/10/22 05:49:14;;;;;;;7.43;5.15;;;;;;;27.09;19.50;97973.28;5031607;28;20056;-80
2022/10/22 05:51:40;;;;;;;9.02;6.78;;;;;;;27.05;19.49;97972.63;5034568;28;20128;-79
2022/10/22 05:54:07;;;;;;;10.05;6.28;;;;;;;26.52;19.80;97971.63;5033182;28;20109;-80
2022/10/22 05:56:34;;;;;;;11.05;6.53;;;;;;;25.97;20.16;97975.78;5030419;28;20034;-81
2022/10/22 05:59:00;;;;;;;10.05;6.28;;;;;;;25.70;20.82;97964.97;5034652;28;20029;-80
2022/10/22 06:01:30;;;;;;;8.30;6.03;;;;;;;25.38;21.45;97959.47;5035442;28;20379;-81
2022/10/22 06:03:58;;;;;;;10.82;6.50;;;;;;;25.19;21.67;97964.03;5035412;28;20034;-80
2022/10/22 06:06:42;;;;;;;9.27;5.57;;;;;;;25.77;21.38;97958.31;5033090;28;20030;-81
2022/10/22 06:09:13;;;;;;;8.82;6.40;;;;;;;26.25;20.71;97954.44;5034163;28;20055;-80
2022/10/22 06:11:40;;;;;;;10.93;6.75;;;;;;;26.56;20.46;97964.63;5019823;28;20113;-80
2022/10/22 06:14:06;;;;;;;9.95;6.93;;;;;;;26.22;20.71;97967.38;5033808;28;20037;-80
2022/10/22 06:16:32;;;;;;;10.32;7.32;;;;;;;26.36;20.92;97972.53;5035676;28;20479;-81
2022/10/22 06:19:02;;;;;;;10.45;6.88;;;;;;;26.38;21.05;97967.25;5035035;28;20091;-80
2022/10/22 06:21:29;;;;;;;9.35;6.47;;;;;;;26.69;20.56;97975.88;5035577;28;20059;-80
2022/10/22 06:23:57;;;;;;;9.35;6.78;;;;;;;26.99;20.70;97974.44;5033811;28;20541;-80
2022/10/22 06:26:23;;;;;;;10.35;6.60;;;;;;;27.23;20.63;97981.22;5035419;28;20044;-80
2022/10/22 06:28:49;;;;;;;9.80;6.00;;;;;;;27.39;20.56;97983.88;5030642;28;20026;-80
2022/10/22 06:31:15;;;;;;;8.80;5.95;;;;;;;27.70;20.58;97970.59;5034095;28;20037;-81
2022/10/22 06:33:42;;;;;;;10.30;6.53;;;;;;;27.92;20.62;97968.53;5034616;28;20029;-80
2022/10/22 06:36:20;;;;;;;8.70;6.25;;;;;;;27.87;20.96;97959.88;5034995;28;20112;-81
2022/10/22 06:38:46;;;;;;;9.68;7.07;;;;;;;27.55;21.32;97969.59;5034337;28;20026;-81
2022/10/22 06:41:15;;;;;;;9.93;6.05;;;;;;;27.72;21.17;97978.63;5035080;28;20033;-80
2022/10/22 06:43:47;;;;;;;8.40;5.75;;;;;;;28.11;21.02;97985.59;5034476;28;20029;-80
2022/10/22 06:46:16;;;;;;;8.55;5.53;;;;;;;28.48;20.75;97981.66;5029678;28;20042;-80
2022/10/22 06:48:47;;;;;;;10.55;6.50;;;;;;;28.69;20.79;97995.69;5035059;28;20044;-81
2022/10/22 06:51:13;;;;;;;8.10;5.70;;;;;;;28.52;21.32;97996.44;5034882;28;20053;-80
2022/10/22 06:53:40;;;;;;;11.50;7.47;;;;;;;28.04;21.49;97986.66;5034626;28;20060;-81
2022/10/22 06:56:11;;;;;;;9.73;6.72;;;;;;;28.29;21.58;97991.31;5034825;28;20033;-80
2022/10/22 06:58:37;;;;;;;14.18;7.82;;;;;;;28.12;21.93;97987.16;5031718;28;20079;-81
2022/10/22 07:01:06;;;;;;;8.98;6.13;;;;;;;28.16;22.21;97996.28;5020978;28;20037;-81
2022/10/22 07:03:33;;;;;;;8.30;6.00;;;;;;;28.26;22.05;97995.06;5032814;28;20028;-81
2022/10/22 07:06:04;;;;;;;7.82;5.40;;;;;;;28.17;22.42;98011.97;5034683;28;20095;-81
2022/10/22 07:08:30;;;;;;;9.38;6.30;;;;;;;28.73;21.98;98018.94;5034489;28;20080;-81
2022/10/22 07:11:06;;;;;;;7.45;5.95;;;;;;;29.29;22.01;98023.47;5034640;28;20116;-81
2022/10/22 07:13:32;;;;;;;9.20;5.82;;;;;;;29.77;21.22;98025.34;5034248;28;20065;-81
2022/10/22 07:15:58;;;;;;;10.40;6.97;;;;;;;28.91;22.35;98018.22;5050732;28;20037;-81
2022/10/22 07:18:24;;;;;;;9.05;6.35;;;;;;;28.48;23.68;98024.00;5048731;28;20037;-82
2022/10/22 07:20:50;;;;;;;9.63;5.40;;;;;;;28.86;23.46;98018.81;5035802;28;20470;-81
2022/10/22 07:23:16;;;;;;;6.10;4.82;;;;;;;29.49;23.02;98015.28;5021908;28;20033;-81
2022/10/22 07:25:43;;;;;;;9.52;6.13;;;;;;;30.08;22.25;97999.63;5025896;28;20033;-82
2022/10/22 07:28:10;;;;;;;9.82;6.05;;;;;;;30.20;21.57;97995.03;5029917;28;20034;-80
2022/10/22 07:30:37;;;;;;;8.90;6.47;;;;;;;30.45;21.62;98006.75;5032060;28;20544;-81
2022/10/22 07:33:04;;;;;;;9.13;5.82;;;;;;;30.77;22.11;98005.13;5028670;28;20040;-80
2022/10/22 07:35:35;;;;;;;8.90;5.80;;;;;;;31.10;21.73;98010.78;5019875;28;20153;-82
2022/10/22 07:38:01;;;;;;;8.52;6.75;;;;;;;31.33;22.04;98024.94;5024080;28;20116;-81
2022/10/22 07:40:27;;;;;;;7.82;6.03;;;;;;;31.41;21.37;98011.94;5027750;28;20083;-80
2022/10/22 07:42:53;;;;;;;9.98;6.40;;;;;;;31.50;21.22;98002.59;5032947;28;20045;-80
2022/10/22 07:45:19;;;;;;;10.27;7.30;;;;;;;31.65;21.13;98011.16;5027778;28;20034;-80
2022/10/22 07:47:47;;;;;;;19.67;11.80;;;;;;;31.65;21.25;98003.41;5025284;28;20044;-80
2022/10/22 07:50:14;;;;;;;15.15;10.18;;;;;;;31.65;21.62;98014.00;5030742;28;20029;-81
2022/10/22 07:52:40;;;;;;;17.20;10.68;;;;;;;31.85;21.98;98016.94;5024126;28;20034;-82
2022/10/22 07:55:06;;;;;;;15.35;10.52;;;;;;;31.86;21.39;98016.44;5028636;28;20037;-81
2022/10/22 07:57:33;;;;;;;12.32;8.75;;;;;;;31.95;21.24;98012.72;5029682;28;20038;-81
2022/10/22 07:59:59;;;;;;;9.98;7.72;;;;;;;32.11;21.41;98015.09;5028524;28;20028;-81
2022/10/22 08:02:25;;;;;;;10.73;6.43;;;;;;;32.28;20.79;98006.88;5030703;28;20041;-81
2022/10/22 08:04:51;;;;;;;12.45;7.25;;;;;;;32.40;21.05;97994.38;5028839;28;20022;-81
2022/10/22 08:07:18;;;;;;;10.85;7.95;;;;;;;32.43;21.12;97996.25;5026118;28;20402;-80
2022/10/22 08:09:44;;;;;;;10.48;7.53;;;;;;;32.49;21.22;97994.25;5029079;28;20025;-80
2022/10/22 08:12:10;;;;;;;9.10;6.32;;;;;;;32.44;20.78;97998.56;5025703;28;20041;-80
2022/10/22 08:14:37;;;;;;;8.85;6.40;;;;;;;32.40;20.52;97998.00;5031805;28;20040;-81
2022/10/22 08:17:03;;;;;;;10.57;6.30;;;;;;;32.35;20.66;98000.78;5025476;28;20128;-80
2022/10/22 08:19:31;;;;;;;8.07;6.57;;;;;;;32.32;20.58;97998.91;5028163;28;20454;-80
2022/10/22 08:21:58;;;;;;;8.60;6.30;;;;;;;32.29;20.80;97997.03;5033059;28;20030;-80
2022/10/22 08:24:25;;;;;;;7.78;5.68;;;;;;;32.24;21.28;97986.38;5032764;28;20028;-80
2022/10/22 08:26:54;;;;;;;7.75;5.40;;;;;;;32.18;21.42;98002.56;5030495;28;20524;-80
2022/10/22 08:29:22;;;;;;;8.63;6.15;;;;;;;31.73;21.15;98023.69;5027264;28;20037;-80
2022/10/22 08:31:49;;;;;;;8.43;6.30;;;;;;;31.63;21.19;98025.81;5013475;28;20049;-82
2022/10/22 08:34:15;;;;;;;7.05;5.97;;;;;;;31.60;21.55;98037.38;5027452;28;20042;-81
2022/10/22 08:36:42;;;;;;;9.57;5.88;;;;;;;31.06;21.59;98038.56;5027032;28;20121;-81
2022/10/22 08:39:08;;;;;;;9.32;6.32;;;;;;;31.06;21.54;98033.66;5033087;28;20037;-81
2022/10/22 08:41:55;;;;;;;8.00;5.55;;;;;;;31.38;21.99;98024.28;5033102;28;20391;-81
2022/10/22 08:44:51;;;;;;;7.18;4.65;;;;;;;31.86;21.90;98021.31;5031926;28;20069;-81
2022/10/22 08:47:42;;;;;;;8.20;5.30;;;;;;;32.09;21.30;98037.53;5031777;28;20036;-82
2022/10/22 08:50:15;;;;;;;7.28;5.05;;;;;;;31.87;20.92;98045.63;5016325;28;20042;-84
2022/10/22 08:52:48;;;;;;;8.65;5.85;;;;;;;31.36;21.20;98043.84;5028379;28;20044;-82
2022/10/22 08:55:15;;;;;;;6.07;4.88;;;;;;;31.49;21.83;98048.47;5023011;28;20120;-83
2022/10/22 08:57:53;;;;;;;7.15;5.13;;;;;;;31.74;22.18;98048.72;5022669;28;20061;-83
2022/10/22 09:00:44;;;;;;;6.88;4.97;;;;;;;31.78;21.50;98045.72;5029491;28;20502;-83
2022/10/22 09:03:35;;;;;;;5.60;4.00;;;;;;;32.04;21.43;98063.78;5026273;28;20042;-81
2022/10/22 09:06:07;;;;;;;;;;;;;;;32.09;20.03;98058.19;5029355;28;20371;-81
2022/10/22 09:08:36;;;;;;;8.70;4.53;;;;;;;31.05;21.27;98045.47;5028367;28;20366;-81
2022/10/22 09:11:12;;;;;;;4.32;3.33;;;;;;;30.38;22.55;98045.97;5030384;28;20495;-81
2022/10/22 09:13:47;;;;;;;8.70;3.67;;;;;;;30.56;21.78;98037.38;5026002;28;20026;-81
2022/10/22 09:16:37;;;;;;;3.75;3.03;;;;;;;31.00;22.73;98018.56;5031600;28;20033;-81
2022/10/22 09:19:20;;;;;;;4.32;3.33;;;;;;;31.63;21.99;97996.63;5029974;28;20188;-81
2022/10/22 09:22:16;;;;;;;4.75;3.42;;;;;;;31.07;22.00;98011.75;5031214;28;20065;-81
2022/10/22 09:24:52;;;;;;;4.57;3.45;;;;;;;31.70;21.85;98021.81;5042947;28;20437;-82
2022/10/22 09:27:27;;;;;;;4.53;3.47;;;;;;;32.19;21.90;98041.84;5022709;28;20037;-81
2022/10/22 09:29:53;;;;;;;5.15;4.13;;;;;;;32.36;20.46;98053.47;5031973;28;20029;-81
2022/10/22 09:32:19;;;;;;;5.68;4.40;;;;;;;31.82;20.99;98041.41;5030543;28;20041;-80
2022/10/22 09:34:54;;;;;;;4.13;3.35;;;;;;;32.03;21.94;98034.59;5030980;28;20060;-80
2022/10/22 09:37:26;;;;;;;5.70;3.78;;;;;;;32.22;21.23;98031.53;5029124;28;20061;-80
2022/10/22 09:39:54;;;;;;;4.90;3.60;;;;;;;32.27;20.79;98022.34;5027450;28;20080;-81
2022/10/22 09:42:21;;;;;;;6.75;3.88;;;;;;;32.39;20.71;98010.66;5019268;28;20041;-80
2022/10/22 09:44:57;;;;;;;5.78;3.42;;;;;;;32.03;20.94;98011.88;5024910;28;20075;-81
2022/10/22 09:47:29;;;;;;;5.03;3.10;;;;;;;32.26;21.71;98026.44;5025642;28;20026;-81
2022/10/22 09:50:26;;;;;;;5.70;3.17;;;;;;;32.44;20.56;98029.84;5030266;28;20072;-80
2022/10/22 09:53:21;;;;;;;4.63;2.53;;;;;;;32.33;20.88;98028.88;5029158;28;20047;-81
2022/10/22 09:55:57;;;;;;;3.53;2.72;;;;;;;32.49;21.17;98031.19;5020285;28;20049;-81
2022/10/22 09:58:24;;;;;;;5.43;3.33;;;;;;;32.55;20.26;98027.22;5032574;28;20401;-82
2022/10/22 10:00:57;;;;;;;5.57;3.47;;;;;;;32.45;21.47;98017.22;5033273;28;20040;-79
2022/10/22 10:03:26;;;;;;;3.90;3.50;;;;;;;32.41;20.45;98010.16;5035948;28;20022;-81
2022/10/22 10:05:56;;;;;;;6.20;3.75;;;;;;;31.62;21.45;98017.78;5032664;28;20041;-80
2022/10/22 10:08:22;;;;;;;4.82;3.20;;;;;;;31.75;21.04;98012.59;5029586;28;20030;-80
2022/10/22 10:11:10;;;;;;;6.10;3.45;;;;;;;31.65;21.52;98009.06;5032757;28;20034;-81
2022/10/22 10:13:42;;;;;;;4.65;3.58;;;;;;;30.76;22.83;98012.06;5031875;28;20026;-83
2022/10/22 10:16:36;;;;;;;4.18;3.60;;;;;;;31.29;22.53;98018.69;5032622;28;20112;-82
2022/10/22 10:19:35;;;;;;;3.40;3.00;;;;;;;32.01;22.42;98019.31;5020313;28;20104;-81
2022/10/22 10:22:40;;;;;;;2.78;2.50;;;;;;;32.29;21.34;98028.31;5028980;28;20037;-81
2022/10/22 10:25:29;;;;;;;4.60;3.40;;;;;;;30.88;22.92;98039.44;5028252;28;20042;-80
2022/10/22 10:28:11;;;;;;;3.15;2.83;;;;;;;30.48;23.07;98036.94;5021997;28;20047;-80
2022/10/22 10:31:04;;;;;;;4.43;3.30;;;;;;;30.67;22.96;98034.78;5034294;28;20029;-80
2022/10/22 10:33:47;;;;;;;5.05;3.88;;;;;;;31.16;22.75;98029.47;5030591;28;20053;-80
2022/10/22 10:36:33;;;;;;;5.05;3.67;;;;;;;31.46;22.07;98036.03;5029978;28;20072;-82
2022/10/22 10:39:17;;;;;;;4.18;3.58;;;;;;;31.87;22.25;98035.06;5026524;28;20061;-80
2022/10/22 10:42:12;;;;;;;5.15;3.30;;;;;;;32.42;21.77;98037.28;5031513;28;20107;-80
2022/10/22 10:44:57;;;;;;;5.55;3.25;;;;;;;32.52;21.00;98035.94;5030446;28;20499;-81
2022/10/22 10:47:50;;;;;;;4.28;3.42;;;;;;;32.07;21.51;98046.53;5034619;28;20049;-82
2022/10/22 10:50:49;;;;;;;4.68;3.13;;;;;;;31.61;21.94;98036.88;5027165;28;20025;-81
2022/10/22 10:53:43;;;;;;;4.63;3.20;;;;;;;31.63;21.39;98033.53;5031338;28;20569;-80
2022/10/22 10:56:18;;;;;;;3.67;3.30;;;;;;;31.90;22.32;98028.38;5029326;28;20041;-81
2022/10/22 10:58:59;;;;;;;4.25;3.05;;;;;;;32.06;22.08;98025.09;5034069;28;20505;-80
2022/10/22 11:01:37;;;;;;;4.82;3.50;;;;;;;32.02;21.42;98027.34;5029481;28;20041;-79
2022/10/22 11:04:12;;;;;;;3.50;3.00;;;;;;;31.75;21.77;98023.97;5032945;28;20109;-79
2022/10/22 11:06:40;;;;;;;9.32;4.40;;;;;;;31.59;22.18;98033.75;5032639;28;20044;-80
2022/10/22 11:09:25;;;;;;;6.75;4.18;;;;;;;31.63;22.24;98033.53;5030711;28;20045;-80
2022/10/22 11:12:02;;;;;;;5.55;3.92;;;;;;;31.52;22.50;98028.44;5034361;28;20179;-80
2022/10/22 11:14:38;;;;;;;5.38;3.63;;;;;;;31.32;23.01;98042.47;5031548;28;20083;-80
2022/10/22 11:17:12;;;;;;;5.13;3.90;;;;;;;31.39;22.84;98031.50;5031006;28;20401;-81
2022/10/22 11:20:06;;;;;;;4.47;4.03;;;;;;;31.54;22.33;98037.25;5031810;28;20064;-81
2022/10/22 11:22:47;;;;;;;5.30;3.63;;;;;;;31.86;22.55;98032.69;5030228;28;20065;-81
2022/10/22 11:25:38;;;;;;;4.43;3.53;;;;;;;32.23;22.75;98039.56;5032409;28;20037;-80
2022/10/22 11:28:11;;;;;;;;;;;;;;;32.51;21.83;98040.06;5033394;28;20120;-81
2022/10/22 11:30:39;;;;;;;5.35;4.00;;;;;;;32.71;21.41;98034.44;5032574;28;19943;-81
2022/10/22 11:33:11;;;;;;;6.32;4.25;;;;;;;32.73;22.16;98031.88;5032828;28;20083;-81
2022/10/22 11:35:41;;;;;;;4.32;3.60;;;;;;;32.54;21.63;98028.50;5029172;28;20030;-80
2022/10/22 11:38:12;;;;;;;6.25;3.83;;;;;;;32.28;22.58;98030.34;5028342;28;20036;-80
2022/10/22 11:40:57;;;;;;;6.43;4.07;;;;;;;32.35;21.79;98038.47;5028410;28;20033;-80
2022/10/22 11:43:30;;;;;;;5.88;4.10;;;;;;;32.06;22.54;98025.09;5020723;28;20140;-80
2022/10/22 11:46:23;;;;;;;7.18;4.47;;;;;;;31.92;22.93;98023.00;5033954;28;20395;-80
2022/10/22 11:49:13;;;;;;;5.68;4.10;;;;;;;31.95;23.18;98013.50;5020401;28;20399;-80
2022/10/22 11:51:41;;;;;;;4.53;3.45;;;;;;;32.18;22.58;98011.88;5023677;28;20187;-80
2022/10/22 11:54:42;;;;;;;6.22;3.80;;;;;;;32.31;22.92;98015.16;5030130;28;20029;-80